Schefferville, Canada
Current Conditions -  °F | °C
As of 6:00 PM on Wednesday 22 Oct 2014 (Local Time) from CYKL Reporting Station
Clear Clear  
Wind Chill: 26°   Ceiling: Unl
Heat Index: 32°   Visibility: 9mi
Dew Point: 27°   Wind: 7mph
Humidity: 80%   Direction: 190°S
Pressure: 30.28"   Gusts: NA
Location:  54.8°N, 66.83°W
Report Text: CYKL 222200Z AUTO 19006KT 9SM CLR 00/M03 A3028 RMK SLP288
Loading
Personal Weather Stations






























Interactive Weather Map New forecast layout! Learn more

10-Day Weather Forecast

Advertisements
Track Severe Weather on mobile